sensor_id;sensor_type;location;lat;lon;timestamp;P1;durP1;ratioP1;P2;durP2;ratioP2
78856;SDS011;68207;50.078;19.936;2023-11-21T00:02:07;9.00;;;5.90;;
78856;SDS011;68207;50.078;19.936;2023-11-21T00:04:32;7.40;;;5.00;;
78856;SDS011;68207;50.078;19.936;2023-11-21T00:06:57;8.70;;;4.80;;
78856;SDS011;68207;50.078;19.936;2023-11-21T00:09:23;8.70;;;5.50;;
78856;SDS011;68207;50.078;19.936;2023-11-21T00:11:48;7.10;;;4.60;;
78856;SDS011;68207;50.078;19.936;2023-11-21T00:14:13;9.80;;;5.20;;
78856;SDS011;68207;50.078;19.936;2023-11-21T00:16:40;7.60;;;4.70;;
78856;SDS011;68207;50.078;19.936;2023-11-21T00:19:05;9.10;;;5.00;;
78856;SDS011;68207;50.078;19.936;2023-11-21T00:21:30;6.70;;;4.90;;
78856;SDS011;68207;50.078;19.936;2023-11-21T00:23:56;10.00;;;5.10;;
78856;SDS011;68207;50.078;19.936;2023-11-21T00:26:21;7.70;;;4.50;;
78856;SDS011;68207;50.078;19.936;2023-11-21T00:28:46;8.00;;;5.20;;
78856;SDS011;68207;50.078;19.936;2023-11-21T00:31:11;8.60;;;5.00;;
78856;SDS011;68207;50.078;19.936;2023-11-21T00:33:36;7.00;;;4.30;;
78856;SDS011;68207;50.078;19.936;2023-11-21T00:36:02;6.60;;;4.00;;
78856;SDS011;68207;50.078;19.936;2023-11-21T00:38:27;9.00;;;4.60;;
78856;SDS011;68207;50.078;19.936;2023-11-21T00:40:52;6.10;;;4.20;;
78856;SDS011;68207;50.078;19.936;2023-11-21T00:43:20;5.70;;;3.90;;
78856;SDS011;68207;50.078;19.936;2023-11-21T00:45:46;5.80;;;4.10;;
78856;SDS011;68207;50.078;19.936;2023-11-21T00:48:14;6.20;;;3.90;;
78856;SDS011;68207;50.078;19.936;2023-11-21T00:50:39;6.00;;;3.40;;
78856;SDS011;68207;50.078;19.936;2023-11-21T00:53:04;5.70;;;3.60;;
78856;SDS011;68207;50.078;19.936;2023-11-21T00:55:29;7.10;;;4.10;;
78856;SDS011;68207;50.078;19.936;2023-11-21T00:57:54;7.80;;;3.60;;
78856;SDS011;68207;50.078;19.936;2023-11-21T01:00:20;5.80;;;3.40;;
78856;SDS011;68207;50.078;19.936;2023-11-21T01:02:45;5.10;;;3.40;;
78856;SDS011;68207;50.078;19.936;2023-11-21T01:05:10;6.10;;;3.20;;
78856;SDS011;68207;50.078;19.936;2023-11-21T01:07:35;4.90;;;3.40;;
78856;SDS011;68207;50.078;19.936;2023-11-21T01:10:01;5.60;;;3.10;;
78856;SDS011;68207;50.078;19.936;2023-11-21T01:12:27;4.50;;;3.00;;
78856;SDS011;68207;50.078;19.936;2023-11-21T01:14:52;3.80;;;2.60;;
78856;SDS011;68207;50.078;19.936;2023-11-21T01:17:17;4.60;;;2.70;;
78856;SDS011;68207;50.078;19.936;2023-11-21T01:19:43;6.10;;;3.50;;
78856;SDS011;68207;50.078;19.936;2023-11-21T01:22:08;4.80;;;3.20;;
78856;SDS011;68207;50.078;19.936;2023-11-21T01:24:34;4.20;;;3.10;;
78856;SDS011;68207;50.078;19.936;2023-11-21T01:26:59;6.30;;;3.50;;
78856;SDS011;68207;50.078;19.936;2023-11-21T01:29:24;5.20;;;3.00;;
78856;SDS011;68207;50.078;19.936;2023-11-21T01:31:49;5.10;;;3.20;;
78856;SDS011;68207;50.078;19.936;2023-11-21T01:34:15;4.30;;;3.20;;
78856;SDS011;68207;50.078;19.936;2023-11-21T01:36:40;3.90;;;3.00;;
78856;SDS011;68207;50.078;19.936;2023-11-21T01:39:05;6.00;;;3.10;;
78856;SDS011;68207;50.078;19.936;2023-11-21T01:41:33;4.10;;;2.80;;
78856;SDS011;68207;50.078;19.936;2023-11-21T01:44:00;4.90;;;3.30;;
78856;SDS011;68207;50.078;19.936;2023-11-21T01:46:25;6.60;;;4.20;;
78856;SDS011;68207;50.078;19.936;2023-11-21T01:48:50;5.00;;;3.40;;
78856;SDS011;68207;50.078;19.936;2023-11-21T01:51:16;4.90;;;3.40;;
78856;SDS011;68207;50.078;19.936;2023-11-21T01:53:41;6.70;;;4.20;;
78856;SDS011;68207;50.078;19.936;2023-11-21T01:56:06;5.70;;;3.60;;
78856;SDS011;68207;50.078;19.936;2023-11-21T01:58:33;7.00;;;4.80;;
78856;SDS011;68207;50.078;19.936;2023-11-21T02:00:58;8.00;;;4.90;;
78856;SDS011;68207;50.078;19.936;2023-11-21T02:03:23;7.10;;;4.60;;
78856;SDS011;68207;50.078;19.936;2023-11-21T02:05:48;7.80;;;5.00;;
78856;SDS011;68207;50.078;19.936;2023-11-21T02:08:14;5.90;;;4.20;;
78856;SDS011;68207;50.078;19.936;2023-11-21T02:10:39;5.60;;;4.00;;
78856;SDS011;68207;50.078;19.936;2023-11-21T02:13:05;6.70;;;4.50;;
78856;SDS011;68207;50.078;19.936;2023-11-21T02:15:31;7.30;;;5.10;;
78856;SDS011;68207;50.078;19.936;2023-11-21T02:17:56;5.30;;;4.10;;
78856;SDS011;68207;50.078;19.936;2023-11-21T02:20:23;5.90;;;4.40;;
78856;SDS011;68207;50.078;19.936;2023-11-21T02:25:15;6.00;;;4.70;;
78856;SDS011;68207;50.078;19.936;2023-11-21T02:27:40;10.90;;;3.80;;
78856;SDS011;68207;50.078;19.936;2023-11-21T02:30:05;5.80;;;4.30;;
78856;SDS011;68207;50.078;19.936;2023-11-21T02:32:32;7.90;;;4.30;;
78856;SDS011;68207;50.078;19.936;2023-11-21T02:34:57;8.30;;;5.30;;
78856;SDS011;68207;50.078;19.936;2023-11-21T02:37:26;6.60;;;4.10;;
78856;SDS011;68207;50.078;19.936;2023-11-21T02:39:51;5.40;;;3.90;;
78856;SDS011;68207;50.078;19.936;2023-11-21T02:42:17;8.00;;;4.30;;
78856;SDS011;68207;50.078;19.936;2023-11-21T02:44:42;6.10;;;4.00;;
78856;SDS011;68207;50.078;19.936;2023-11-21T02:47:07;4.90;;;3.70;;
78856;SDS011;68207;50.078;19.936;2023-11-21T02:49:32;5.90;;;4.40;;
78856;SDS011;68207;50.078;19.936;2023-11-21T02:51:59;6.80;;;3.80;;
78856;SDS011;68207;50.078;19.936;2023-11-21T02:54:26;6.70;;;4.20;;
78856;SDS011;68207;50.078;19.936;2023-11-21T02:56:52;7.70;;;4.50;;
78856;SDS011;68207;50.078;19.936;2023-11-21T02:59:17;6.60;;;4.20;;
78856;SDS011;68207;50.078;19.936;2023-11-21T03:01:42;5.10;;;3.90;;
78856;SDS011;68207;50.078;19.936;2023-11-21T03:04:07;7.00;;;4.40;;
78856;SDS011;68207;50.078;19.936;2023-11-21T03:06:33;5.70;;;3.60;;
78856;SDS011;68207;50.078;19.936;2023-11-21T03:08:58;5.40;;;3.50;;
78856;SDS011;68207;50.078;19.936;2023-11-21T03:11:24;7.00;;;4.90;;
78856;SDS011;68207;50.078;19.936;2023-11-21T03:13:49;7.30;;;4.80;;
78856;SDS011;68207;50.078;19.936;2023-11-21T03:16:15;6.50;;;4.30;;
78856;SDS011;68207;50.078;19.936;2023-11-21T03:18:40;7.90;;;4.10;;
78856;SDS011;68207;50.078;19.936;2023-11-21T03:21:06;5.90;;;4.10;;
78856;SDS011;68207;50.078;19.936;2023-11-21T03:23:33;6.40;;;4.20;;
78856;SDS011;68207;50.078;19.936;2023-11-21T03:25:59;6.90;;;4.40;;
78856;SDS011;68207;50.078;19.936;2023-11-21T03:28:25;7.00;;;4.40;;
78856;SDS011;68207;50.078;19.936;2023-11-21T03:30:50;9.80;;;5.10;;
78856;SDS011;68207;50.078;19.936;2023-11-21T03:33:15;7.60;;;4.50;;
78856;SDS011;68207;50.078;19.936;2023-11-21T03:35:40;7.00;;;3.60;;
78856;SDS011;68207;50.078;19.936;2023-11-21T03:38:07;5.70;;;4.00;;
78856;SDS011;68207;50.078;19.936;2023-11-21T03:40:32;6.90;;;3.90;;
78856;SDS011;68207;50.078;19.936;2023-11-21T03:42:57;4.60;;;3.20;;
78856;SDS011;68207;50.078;19.936;2023-11-21T03:45:22;6.60;;;4.20;;
78856;SDS011;68207;50.078;19.936;2023-11-21T03:47:48;6.20;;;3.90;;
78856;SDS011;68207;50.078;19.936;2023-11-21T03:50:13;7.00;;;4.60;;
78856;SDS011;68207;50.078;19.936;2023-11-21T03:52:38;7.20;;;4.60;;
78856;SDS011;68207;50.078;19.936;2023-11-21T03:55:04;6.30;;;3.50;;
78856;SDS011;68207;50.078;19.936;2023-11-21T03:57:29;8.30;;;4.90;;
78856;SDS011;68207;50.078;19.936;2023-11-21T03:59:54;7.50;;;4.80;;
78856;SDS011;68207;50.078;19.936;2023-11-21T04:02:19;6.30;;;4.10;;
78856;SDS011;68207;50.078;19.936;2023-11-21T04:04:45;5.20;;;4.00;;
78856;SDS011;68207;50.078;19.936;2023-11-21T04:07:10;6.10;;;3.00;;
78856;SDS011;68207;50.078;19.936;2023-11-21T04:09:36;6.40;;;3.70;;
78856;SDS011;68207;50.078;19.936;2023-11-21T04:12:01;6.50;;;3.90;;
78856;SDS011;68207;50.078;19.936;2023-11-21T04:14:26;5.00;;;3.50;;
78856;SDS011;68207;50.078;19.936;2023-11-21T04:16:52;6.30;;;3.70;;
78856;SDS011;68207;50.078;19.936;2023-11-21T04:19:18;5.60;;;3.80;;
78856;SDS011;68207;50.078;19.936;2023-11-21T04:21:43;6.40;;;3.40;;
78856;SDS011;68207;50.078;19.936;2023-11-21T04:24:09;5.90;;;3.80;;
78856;SDS011;68207;50.078;19.936;2023-11-21T04:26:34;8.70;;;4.20;;
78856;SDS011;68207;50.078;19.936;2023-11-21T04:28:59;6.20;;;4.00;;
78856;SDS011;68207;50.078;19.936;2023-11-21T04:31:25;5.90;;;3.90;;
78856;SDS011;68207;50.078;19.936;2023-11-21T04:33:50;6.90;;;4.10;;
78856;SDS011;68207;50.078;19.936;2023-11-21T04:36:15;6.30;;;3.50;;
78856;SDS011;68207;50.078;19.936;2023-11-21T04:38:40;8.00;;;4.80;;
78856;SDS011;68207;50.078;19.936;2023-11-21T04:41:06;6.90;;;3.90;;
78856;SDS011;68207;50.078;19.936;2023-11-21T04:43:31;5.60;;;3.50;;
78856;SDS011;68207;50.078;19.936;2023-11-21T04:45:56;6.70;;;4.20;;
78856;SDS011;68207;50.078;19.936;2023-11-21T04:48:21;5.80;;;3.80;;
78856;SDS011;68207;50.078;19.936;2023-11-21T04:50:46;5.50;;;4.20;;
78856;SDS011;68207;50.078;19.936;2023-11-21T04:53:12;4.80;;;3.70;;
78856;SDS011;68207;50.078;19.936;2023-11-21T04:55:40;4.00;;;2.90;;
78856;SDS011;68207;50.078;19.936;2023-11-21T04:58:05;6.40;;;3.60;;
78856;SDS011;68207;50.078;19.936;2023-11-21T05:00:30;6.20;;;4.00;;
78856;SDS011;68207;50.078;19.936;2023-11-21T05:02:56;6.40;;;4.00;;
78856;SDS011;68207;50.078;19.936;2023-11-21T05:05:21;6.40;;;4.00;;
78856;SDS011;68207;50.078;19.936;2023-11-21T05:07:46;5.60;;;3.70;;
78856;SDS011;68207;50.078;19.936;2023-11-21T05:10:11;6.20;;;3.60;;
78856;SDS011;68207;50.078;19.936;2023-11-21T05:12:39;8.00;;;4.50;;
78856;SDS011;68207;50.078;19.936;2023-11-21T05:15:05;6.80;;;4.40;;
78856;SDS011;68207;50.078;19.936;2023-11-21T05:17:36;7.70;;;4.30;;
78856;SDS011;68207;50.078;19.936;2023-11-21T05:20:02;5.70;;;3.90;;
78856;SDS011;68207;50.078;19.936;2023-11-21T05:24:54;5.50;;;3.70;;
78856;SDS011;68207;50.078;19.936;2023-11-21T05:27:19;4.60;;;3.40;;
78856;SDS011;68207;50.078;19.936;2023-11-21T05:29:44;6.90;;;3.60;;
78856;SDS011;68207;50.078;19.936;2023-11-21T05:32:09;6.60;;;4.00;;
78856;SDS011;68207;50.078;19.936;2023-11-21T05:34:34;6.80;;;4.20;;
78856;SDS011;68207;50.078;19.936;2023-11-21T05:37:00;5.00;;;3.10;;
78856;SDS011;68207;50.078;19.936;2023-11-21T05:39:25;4.50;;;3.50;;
78856;SDS011;68207;50.078;19.936;2023-11-21T05:41:50;6.00;;;3.10;;
78856;SDS011;68207;50.078;19.936;2023-11-21T05:44:15;5.40;;;3.50;;
78856;SDS011;68207;50.078;19.936;2023-11-21T05:46:40;5.10;;;3.40;;
78856;SDS011;68207;50.078;19.936;2023-11-21T05:49:08;7.40;;;3.70;;
78856;SDS011;68207;50.078;19.936;2023-11-21T05:51:33;5.70;;;4.10;;
78856;SDS011;68207;50.078;19.936;2023-11-21T05:53:59;4.50;;;3.70;;
78856;SDS011;68207;50.078;19.936;2023-11-21T05:56:24;6.50;;;3.80;;
78856;SDS011;68207;50.078;19.936;2023-11-21T05:58:49;6.50;;;4.10;;
78856;SDS011;68207;50.078;19.936;2023-11-21T06:01:15;6.10;;;3.70;;
78856;SDS011;68207;50.078;19.936;2023-11-21T06:03:40;6.50;;;3.90;;
78856;SDS011;68207;50.078;19.936;2023-11-21T06:06:05;5.00;;;3.50;;
78856;SDS011;68207;50.078;19.936;2023-11-21T06:08:31;5.00;;;3.70;;
78856;SDS011;68207;50.078;19.936;2023-11-21T06:10:57;6.40;;;3.50;;
78856;SDS011;68207;50.078;19.936;2023-11-21T06:13:22;6.20;;;3.60;;
78856;SDS011;68207;50.078;19.936;2023-11-21T06:15:49;6.20;;;3.90;;
78856;SDS011;68207;50.078;19.936;2023-11-21T06:18:14;7.70;;;3.90;;
78856;SDS011;68207;50.078;19.936;2023-11-21T06:20:39;4.70;;;3.60;;
78856;SDS011;68207;50.078;19.936;2023-11-21T06:23:05;6.80;;;4.20;;
78856;SDS011;68207;50.078;19.936;2023-11-21T06:25:30;7.10;;;4.10;;
78856;SDS011;68207;50.078;19.936;2023-11-21T06:27:58;8.50;;;4.30;;
78856;SDS011;68207;50.078;19.936;2023-11-21T06:30:23;6.80;;;4.50;;
78856;SDS011;68207;50.078;19.936;2023-11-21T06:32:48;7.70;;;5.10;;
78856;SDS011;68207;50.078;19.936;2023-11-21T06:35:15;5.90;;;4.00;;
78856;SDS011;68207;50.078;19.936;2023-11-21T06:37:40;7.00;;;4.70;;
78856;SDS011;68207;50.078;19.936;2023-11-21T06:40:05;6.50;;;4.90;;
78856;SDS011;68207;50.078;19.936;2023-11-21T06:42:31;7.50;;;5.20;;
78856;SDS011;68207;50.078;19.936;2023-11-21T06:44:57;7.60;;;5.20;;
78856;SDS011;68207;50.078;19.936;2023-11-21T06:47:25;8.70;;;6.00;;
78856;SDS011;68207;50.078;19.936;2023-11-21T06:49:51;8.40;;;5.80;;
78856;SDS011;68207;50.078;19.936;2023-11-21T06:52:16;8.70;;;6.00;;
78856;SDS011;68207;50.078;19.936;2023-11-21T06:54:42;9.10;;;5.50;;
78856;SDS011;68207;50.078;19.936;2023-11-21T06:57:07;9.30;;;6.20;;
78856;SDS011;68207;50.078;19.936;2023-11-21T06:59:32;9.00;;;6.00;;
78856;SDS011;68207;50.078;19.936;2023-11-21T07:01:57;9.50;;;6.00;;
78856;SDS011;68207;50.078;19.936;2023-11-21T07:04:23;8.20;;;5.40;;
78856;SDS011;68207;50.078;19.936;2023-11-21T07:06:49;10.50;;;6.30;;
78856;SDS011;68207;50.078;19.936;2023-11-21T07:09:14;7.80;;;5.80;;
78856;SDS011;68207;50.078;19.936;2023-11-21T07:11:40;10.00;;;7.50;;
78856;SDS011;68207;50.078;19.936;2023-11-21T07:14:06;10.40;;;6.50;;
78856;SDS011;68207;50.078;19.936;2023-11-21T07:16:36;9.20;;;6.10;;
78856;SDS011;68207;50.078;19.936;2023-11-21T07:19:04;9.30;;;7.10;;
78856;SDS011;68207;50.078;19.936;2023-11-21T07:21:32;8.00;;;6.70;;
78856;SDS011;68207;50.078;19.936;2023-11-21T07:23:58;8.60;;;6.60;;
78856;SDS011;68207;50.078;19.936;2023-11-21T07:26:23;10.30;;;7.50;;
78856;SDS011;68207;50.078;19.936;2023-11-21T07:28:50;8.70;;;6.40;;
78856;SDS011;68207;50.078;19.936;2023-11-21T07:31:15;9.10;;;6.20;;
78856;SDS011;68207;50.078;19.936;2023-11-21T07:33:40;8.60;;;6.30;;
78856;SDS011;68207;50.078;19.936;2023-11-21T07:36:06;11.80;;;7.50;;
78856;SDS011;68207;50.078;19.936;2023-11-21T07:38:31;10.80;;;6.90;;
78856;SDS011;68207;50.078;19.936;2023-11-21T07:40:58;9.50;;;6.10;;
78856;SDS011;68207;50.078;19.936;2023-11-21T07:43:26;7.80;;;5.70;;
78856;SDS011;68207;50.078;19.936;2023-11-21T07:45:51;9.60;;;6.90;;
78856;SDS011;68207;50.078;19.936;2023-11-21T07:48:16;10.30;;;6.30;;
78856;SDS011;68207;50.078;19.936;2023-11-21T07:50:41;9.30;;;6.90;;
78856;SDS011;68207;50.078;19.936;2023-11-21T07:53:06;9.80;;;6.80;;
78856;SDS011;68207;50.078;19.936;2023-11-21T07:55:32;9.60;;;6.30;;
78856;SDS011;68207;50.078;19.936;2023-11-21T07:57:58;10.80;;;6.20;;
78856;SDS011;68207;50.078;19.936;2023-11-21T08:00:24;9.60;;;7.00;;
78856;SDS011;68207;50.078;19.936;2023-11-21T08:02:49;8.60;;;5.90;;
78856;SDS011;68207;50.078;19.936;2023-11-21T08:05:14;9.50;;;7.30;;
78856;SDS011;68207;50.078;19.936;2023-11-21T08:07:40;11.10;;;7.10;;
78856;SDS011;68207;50.078;19.936;2023-11-21T08:10:05;10.50;;;6.60;;
78856;SDS011;68207;50.078;19.936;2023-11-21T08:12:31;9.50;;;5.30;;
78856;SDS011;68207;50.078;19.936;2023-11-21T08:14:57;11.50;;;7.80;;
78856;SDS011;68207;50.078;19.936;2023-11-21T08:17:22;8.90;;;6.00;;
78856;SDS011;68207;50.078;19.936;2023-11-21T08:19:48;10.80;;;6.80;;
78856;SDS011;68207;50.078;19.936;2023-11-21T08:22:15;15.70;;;6.50;;
78856;SDS011;68207;50.078;19.936;2023-11-21T08:24:42;7.40;;;5.30;;
78856;SDS011;68207;50.078;19.936;2023-11-21T08:27:07;9.50;;;5.90;;
78856;SDS011;68207;50.078;19.936;2023-11-21T08:29:32;8.40;;;5.80;;
78856;SDS011;68207;50.078;19.936;2023-11-21T08:31:57;9.50;;;6.60;;
78856;SDS011;68207;50.078;19.936;2023-11-21T08:34:23;9.10;;;6.30;;
78856;SDS011;68207;50.078;19.936;2023-11-21T08:36:48;9.90;;;5.70;;
78856;SDS011;68207;50.078;19.936;2023-11-21T08:39:16;10.30;;;6.80;;
78856;SDS011;68207;50.078;19.936;2023-11-21T08:41:43;13.20;;;8.40;;
78856;SDS011;68207;50.078;19.936;2023-11-21T08:44:09;11.10;;;8.10;;
78856;SDS011;68207;50.078;19.936;2023-11-21T08:46:34;11.10;;;7.90;;
78856;SDS011;68207;50.078;19.936;2023-11-21T08:49:02;12.70;;;8.00;;
78856;SDS011;68207;50.078;19.936;2023-11-21T08:51:27;12.20;;;6.90;;
78856;SDS011;68207;50.078;19.936;2023-11-21T08:53:53;11.20;;;8.40;;
78856;SDS011;68207;50.078;19.936;2023-11-21T08:56:18;12.00;;;9.20;;
78856;SDS011;68207;50.078;19.936;2023-11-21T09:01:10;13.90;;;7.80;;
78856;SDS011;68207;50.078;19.936;2023-11-21T09:03:35;13.40;;;10.50;;
78856;SDS011;68207;50.078;19.936;2023-11-21T09:06:00;12.20;;;8.60;;
78856;SDS011;68207;50.078;19.936;2023-11-21T09:08:25;15.10;;;9.30;;
78856;SDS011;68207;50.078;19.936;2023-11-21T09:10:53;13.10;;;8.70;;
78856;SDS011;68207;50.078;19.936;2023-11-21T09:13:18;13.30;;;9.10;;
78856;SDS011;68207;50.078;19.936;2023-11-21T09:15:43;17.30;;;9.50;;
78856;SDS011;68207;50.078;19.936;2023-11-21T09:18:11;16.60;;;10.10;;
78856;SDS011;68207;50.078;19.936;2023-11-21T09:20:36;13.70;;;9.40;;
78856;SDS011;68207;50.078;19.936;2023-11-21T09:23:01;16.90;;;10.80;;
78856;SDS011;68207;50.078;19.936;2023-11-21T09:25:26;12.00;;;8.30;;
78856;SDS011;68207;50.078;19.936;2023-11-21T09:27:53;12.70;;;8.30;;
78856;SDS011;68207;50.078;19.936;2023-11-21T09:30:18;16.10;;;10.40;;
78856;SDS011;68207;50.078;19.936;2023-11-21T09:32:44;13.00;;;9.00;;
78856;SDS011;68207;50.078;19.936;2023-11-21T09:35:10;12.50;;;9.00;;
78856;SDS011;68207;50.078;19.936;2023-11-21T09:37:36;12.70;;;9.20;;
78856;SDS011;68207;50.078;19.936;2023-11-21T09:40:03;14.60;;;10.60;;
78856;SDS011;68207;50.078;19.936;2023-11-21T09:42:38;13.90;;;8.80;;
78856;SDS011;68207;50.078;19.936;2023-11-21T09:47:39;15.90;;;10.30;;
78856;SDS011;68207;50.078;19.936;2023-11-21T09:50:05;15.00;;;9.80;;
78856;SDS011;68207;50.078;19.936;2023-11-21T09:52:33;13.30;;;9.20;;
78856;SDS011;68207;50.078;19.936;2023-11-21T09:55:03;13.50;;;8.90;;
78856;SDS011;68207;50.078;19.936;2023-11-21T09:57:30;15.40;;;10.10;;
78856;SDS011;68207;50.078;19.936;2023-11-21T09:59:56;15.10;;;10.00;;
78856;SDS011;68207;50.078;19.936;2023-11-21T10:02:27;13.20;;;9.30;;
78856;SDS011;68207;50.078;19.936;2023-11-21T10:04:55;11.70;;;8.00;;
78856;SDS011;68207;50.078;19.936;2023-11-21T10:07:21;11.50;;;9.00;;
78856;SDS011;68207;50.078;19.936;2023-11-21T10:09:47;13.60;;;10.20;;
78856;SDS011;68207;50.078;19.936;2023-11-21T10:12:14;13.30;;;10.40;;
78856;SDS011;68207;50.078;19.936;2023-11-21T10:17:05;13.60;;;9.40;;
78856;SDS011;68207;50.078;19.936;2023-11-21T10:19:31;16.10;;;11.50;;
78856;SDS011;68207;50.078;19.936;2023-11-21T10:21:57;17.00;;;12.70;;
78856;SDS011;68207;50.078;19.936;2023-11-21T10:24:24;14.90;;;9.50;;
78856;SDS011;68207;50.078;19.936;2023-11-21T10:26:50;15.20;;;11.00;;
78856;SDS011;68207;50.078;19.936;2023-11-21T10:29:16;14.40;;;9.70;;
78856;SDS011;68207;50.078;19.936;2023-11-21T10:31:42;11.80;;;7.80;;
78856;SDS011;68207;50.078;19.936;2023-11-21T10:34:19;12.20;;;8.40;;
78856;SDS011;68207;50.078;19.936;2023-11-21T10:36:45;11.40;;;7.70;;
78856;SDS011;68207;50.078;19.936;2023-11-21T10:39:14;11.60;;;7.90;;
78856;SDS011;68207;50.078;19.936;2023-11-21T10:41:43;10.80;;;7.30;;
78856;SDS011;68207;50.078;19.936;2023-11-21T10:44:08;12.00;;;8.30;;
78856;SDS011;68207;50.078;19.936;2023-11-21T10:46:34;12.30;;;7.60;;
78856;SDS011;68207;50.078;19.936;2023-11-21T10:49:00;11.00;;;7.20;;
78856;SDS011;68207;50.078;19.936;2023-11-21T10:51:25;15.20;;;7.70;;
78856;SDS011;68207;50.078;19.936;2023-11-21T10:53:54;9.80;;;6.70;;
78856;SDS011;68207;50.078;19.936;2023-11-21T10:56:19;10.20;;;6.70;;
78856;SDS011;68207;50.078;19.936;2023-11-21T10:58:50;8.80;;;6.50;;
78856;SDS011;68207;50.078;19.936;2023-11-21T11:01:19;9.70;;;6.50;;
78856;SDS011;68207;50.078;19.936;2023-11-21T11:03:46;13.40;;;8.10;;
78856;SDS011;68207;50.078;19.936;2023-11-21T11:06:12;10.40;;;6.70;;
78856;SDS011;68207;50.078;19.936;2023-11-21T11:08:38;12.80;;;7.00;;
78856;SDS011;68207;50.078;19.936;2023-11-21T11:11:04;14.20;;;7.00;;
78856;SDS011;68207;50.078;19.936;2023-11-21T11:13:30;12.10;;;8.20;;
78856;SDS011;68207;50.078;19.936;2023-11-21T11:15:57;11.50;;;7.40;;
78856;SDS011;68207;50.078;19.936;2023-11-21T11:18:24;10.60;;;7.40;;
78856;SDS011;68207;50.078;19.936;2023-11-21T11:20:50;10.60;;;8.00;;
78856;SDS011;68207;50.078;19.936;2023-11-21T11:25:52;10.60;;;6.00;;
78856;SDS011;68207;50.078;19.936;2023-11-21T11:28:22;7.50;;;4.80;;
78856;SDS011;68207;50.078;19.936;2023-11-21T11:38:46;7.60;;;5.40;;
78856;SDS011;68207;50.078;19.936;2023-11-21T11:41:11;11.50;;;6.80;;
78856;SDS011;68207;50.078;19.936;2023-11-21T11:43:37;6.70;;;5.10;;
78856;SDS011;68207;50.078;19.936;2023-11-21T11:46:09;11.80;;;7.10;;
78856;SDS011;68207;50.078;19.936;2023-11-21T11:48:37;9.10;;;6.90;;
78856;SDS011;68207;50.078;19.936;2023-11-21T11:53:32;8.80;;;6.00;;
78856;SDS011;68207;50.078;19.936;2023-11-21T11:58:42;8.30;;;5.40;;
78856;SDS011;68207;50.078;19.936;2023-11-21T12:01:07;7.60;;;5.40;;
78856;SDS011;68207;50.078;19.936;2023-11-21T12:03:32;7.80;;;5.50;;
78856;SDS011;68207;50.078;19.936;2023-11-21T12:05:58;10.20;;;6.10;;
78856;SDS011;68207;50.078;19.936;2023-11-21T12:08:23;8.50;;;5.70;;
78856;SDS011;68207;50.078;19.936;2023-11-21T12:10:56;8.10;;;5.70;;
78856;SDS011;68207;50.078;19.936;2023-11-21T12:13:22;7.40;;;5.10;;
78856;SDS011;68207;50.078;19.936;2023-11-21T12:15:48;12.10;;;6.30;;
78856;SDS011;68207;50.078;19.936;2023-11-21T12:18:13;7.10;;;5.10;;
78856;SDS011;68207;50.078;19.936;2023-11-21T12:20:39;7.30;;;5.50;;
78856;SDS011;68207;50.078;19.936;2023-11-21T12:23:06;7.50;;;4.60;;
78856;SDS011;68207;50.078;19.936;2023-11-21T12:25:31;7.90;;;6.20;;
78856;SDS011;68207;50.078;19.936;2023-11-21T12:27:57;7.30;;;5.30;;
78856;SDS011;68207;50.078;19.936;2023-11-21T12:30:23;8.60;;;5.80;;
78856;SDS011;68207;50.078;19.936;2023-11-21T12:32:52;7.40;;;5.50;;
78856;SDS011;68207;50.078;19.936;2023-11-21T12:35:18;8.40;;;4.00;;
78856;SDS011;68207;50.078;19.936;2023-11-21T12:37:46;7.10;;;4.80;;
78856;SDS011;68207;50.078;19.936;2023-11-21T12:40:14;9.50;;;5.20;;
78856;SDS011;68207;50.078;19.936;2023-11-21T12:42:43;9.40;;;6.00;;
78856;SDS011;68207;50.078;19.936;2023-11-21T12:47:39;8.80;;;5.60;;
78856;SDS011;68207;50.078;19.936;2023-11-21T12:50:05;9.90;;;5.70;;
78856;SDS011;68207;50.078;19.936;2023-11-21T12:52:31;6.90;;;4.30;;
78856;SDS011;68207;50.078;19.936;2023-11-21T12:54:57;10.50;;;5.40;;
78856;SDS011;68207;50.078;19.936;2023-11-21T12:57:25;8.20;;;5.10;;
78856;SDS011;68207;50.078;19.936;2023-11-21T12:59:56;10.60;;;6.50;;
78856;SDS011;68207;50.078;19.936;2023-11-21T13:02:21;9.50;;;5.40;;
78856;SDS011;68207;50.078;19.936;2023-11-21T13:04:51;10.50;;;5.70;;
78856;SDS011;68207;50.078;19.936;2023-11-21T13:07:17;9.70;;;5.80;;
78856;SDS011;68207;50.078;19.936;2023-11-21T13:09:43;11.60;;;6.50;;
78856;SDS011;68207;50.078;19.936;2023-11-21T13:12:09;12.10;;;7.70;;
78856;SDS011;68207;50.078;19.936;2023-11-21T13:14:35;8.90;;;5.70;;
78856;SDS011;68207;50.078;19.936;2023-11-21T13:17:00;10.70;;;7.00;;
78856;SDS011;68207;50.078;19.936;2023-11-21T13:19:25;8.70;;;5.90;;
78856;SDS011;68207;50.078;19.936;2023-11-21T13:21:52;12.80;;;6.80;;
78856;SDS011;68207;50.078;19.936;2023-11-21T13:24:17;7.40;;;5.00;;
78856;SDS011;68207;50.078;19.936;2023-11-21T13:26:43;11.20;;;6.80;;
78856;SDS011;68207;50.078;19.936;2023-11-21T13:29:10;9.90;;;6.50;;
78856;SDS011;68207;50.078;19.936;2023-11-21T13:31:37;11.30;;;6.50;;
78856;SDS011;68207;50.078;19.936;2023-11-21T13:34:03;9.60;;;6.50;;
78856;SDS011;68207;50.078;19.936;2023-11-21T13:36:33;9.60;;;5.90;;
78856;SDS011;68207;50.078;19.936;2023-11-21T13:39:00;7.60;;;5.40;;
78856;SDS011;68207;50.078;19.936;2023-11-21T13:41:29;8.00;;;5.40;;
78856;SDS011;68207;50.078;19.936;2023-11-21T13:43:56;7.00;;;4.50;;
78856;SDS011;68207;50.078;19.936;2023-11-21T13:46:31;8.40;;;5.40;;
78856;SDS011;68207;50.078;19.936;2023-11-21T13:49:01;6.60;;;4.70;;
78856;SDS011;68207;50.078;19.936;2023-11-21T13:51:27;6.00;;;4.70;;
78856;SDS011;68207;50.078;19.936;2023-11-21T13:54:04;5.60;;;3.70;;
78856;SDS011;68207;50.078;19.936;2023-11-21T13:56:34;5.40;;;3.60;;
78856;SDS011;68207;50.078;19.936;2023-11-21T13:58:59;5.90;;;4.00;;
78856;SDS011;68207;50.078;19.936;2023-11-21T14:01:32;3.90;;;2.80;;
78856;SDS011;68207;50.078;19.936;2023-11-21T14:04:00;3.90;;;2.20;;
78856;SDS011;68207;50.078;19.936;2023-11-21T14:06:38;2.70;;;1.90;;
78856;SDS011;68207;50.078;19.936;2023-11-21T14:09:13;3.60;;;2.00;;
78856;SDS011;68207;50.078;19.936;2023-11-21T14:11:51;4.60;;;1.90;;
78856;SDS011;68207;50.078;19.936;2023-11-21T14:14:18;2.80;;;2.00;;
78856;SDS011;68207;50.078;19.936;2023-11-21T14:16:43;4.90;;;2.50;;
78856;SDS011;68207;50.078;19.936;2023-11-21T14:19:08;5.30;;;2.30;;
78856;SDS011;68207;50.078;19.936;2023-11-21T14:21:40;3.70;;;1.90;;
78856;SDS011;68207;50.078;19.936;2023-11-21T14:24:08;5.10;;;2.00;;
78856;SDS011;68207;50.078;19.936;2023-11-21T14:26:34;4.30;;;2.60;;
78856;SDS011;68207;50.078;19.936;2023-11-21T14:29:00;4.30;;;2.60;;
78856;SDS011;68207;50.078;19.936;2023-11-21T14:31:25;5.60;;;3.40;;
78856;SDS011;68207;50.078;19.936;2023-11-21T14:33:51;5.00;;;2.70;;
78856;SDS011;68207;50.078;19.936;2023-11-21T14:36:16;4.00;;;2.60;;
78856;SDS011;68207;50.078;19.936;2023-11-21T14:38:42;4.30;;;2.60;;
78856;SDS011;68207;50.078;19.936;2023-11-21T14:41:07;6.60;;;2.70;;
78856;SDS011;68207;50.078;19.936;2023-11-21T14:43:34;4.10;;;2.80;;
78856;SDS011;68207;50.078;19.936;2023-11-21T14:46:00;5.20;;;3.00;;
78856;SDS011;68207;50.078;19.936;2023-11-21T14:48:27;4.30;;;3.00;;
78856;SDS011;68207;50.078;19.936;2023-11-21T14:51:07;6.10;;;3.10;;
78856;SDS011;68207;50.078;19.936;2023-11-21T14:53:53;7.00;;;3.50;;
78856;SDS011;68207;50.078;19.936;2023-11-21T14:56:21;6.30;;;3.50;;